sensor_id;sensor_type;location;lat;lon;timestamp;P1;durP1;ratioP1;P2;durP2;ratioP2
31966;SDS011;18496;52.042;6.812;2023-10-13T00:00:10;40.45;;;19.58;;
31966;SDS011;18496;52.042;6.812;2023-10-13T00:02:28;38.05;;;20.30;;
31966;SDS011;18496;52.042;6.812;2023-10-13T00:04:32;39.83;;;20.23;;
31966;SDS011;18496;52.042;6.812;2023-10-13T00:06:38;36.25;;;19.58;;
31966;SDS011;18496;52.042;6.812;2023-10-13T00:08:42;39.50;;;20.27;;
31966;SDS011;18496;52.042;6.812;2023-10-13T00:10:46;37.40;;;20.17;;
31966;SDS011;18496;52.042;6.812;2023-10-13T00:12:50;38.80;;;19.55;;
31966;SDS011;18496;52.042;6.812;2023-10-13T00:14:55;40.78;;;18.92;;
31966;SDS011;18496;52.042;6.812;2023-10-13T00:17:05;36.80;;;19.95;;
31966;SDS011;18496;52.042;6.812;2023-10-13T00:19:18;36.85;;;19.85;;
31966;SDS011;18496;52.042;6.812;2023-10-13T00:21:23;33.88;;;19.00;;
31966;SDS011;18496;52.042;6.812;2023-10-13T00:23:34;35.50;;;18.95;;
31966;SDS011;18496;52.042;6.812;2023-10-13T00:25:38;38.50;;;19.75;;
31966;SDS011;18496;52.042;6.812;2023-10-13T00:27:53;32.13;;;18.13;;
31966;SDS011;18496;52.042;6.812;2023-10-13T00:32:18;40.47;;;20.05;;
31966;SDS011;18496;52.042;6.812;2023-10-13T00:34:30;36.60;;;19.40;;
31966;SDS011;18496;52.042;6.812;2023-10-13T00:36:35;41.35;;;19.75;;
31966;SDS011;18496;52.042;6.812;2023-10-13T00:38:39;40.60;;;18.63;;
31966;SDS011;18496;52.042;6.812;2023-10-13T00:40:43;33.20;;;18.45;;
31966;SDS011;18496;52.042;6.812;2023-10-13T00:44:58;33.50;;;17.98;;
31966;SDS011;18496;52.042;6.812;2023-10-13T00:47:04;41.08;;;19.15;;
31966;SDS011;18496;52.042;6.812;2023-10-13T00:49:10;37.72;;;17.38;;
31966;SDS011;18496;52.042;6.812;2023-10-13T00:51:19;30.88;;;16.67;;
31966;SDS011;18496;52.042;6.812;2023-10-13T00:53:36;33.33;;;17.20;;
31966;SDS011;18496;52.042;6.812;2023-10-13T00:55:43;32.85;;;16.85;;
31966;SDS011;18496;52.042;6.812;2023-10-13T00:57:48;28.70;;;16.75;;
31966;SDS011;18496;52.042;6.812;2023-10-13T00:59:59;37.60;;;17.30;;
31966;SDS011;18496;52.042;6.812;2023-10-13T01:02:15;36.53;;;16.60;;
31966;SDS011;18496;52.042;6.812;2023-10-13T01:04:38;30.10;;;15.80;;
31966;SDS011;18496;52.042;6.812;2023-10-13T01:06:42;30.98;;;16.08;;
31966;SDS011;18496;52.042;6.812;2023-10-13T01:08:47;34.40;;;16.33;;
31966;SDS011;18496;52.042;6.812;2023-10-13T01:10:54;32.67;;;15.95;;
31966;SDS011;18496;52.042;6.812;2023-10-13T01:12:58;34.85;;;16.27;;
31966;SDS011;18496;52.042;6.812;2023-10-13T01:15:06;29.25;;;16.02;;
31966;SDS011;18496;52.042;6.812;2023-10-13T01:17:12;36.25;;;15.95;;
31966;SDS011;18496;52.042;6.812;2023-10-13T01:19:16;26.08;;;14.90;;
31966;SDS011;18496;52.042;6.812;2023-10-13T01:21:22;29.08;;;14.93;;
31966;SDS011;18496;52.042;6.812;2023-10-13T01:23:30;32.15;;;14.73;;
31966;SDS011;18496;52.042;6.812;2023-10-13T01:25:41;29.33;;;14.47;;
31966;SDS011;18496;52.042;6.812;2023-10-13T01:27:44;30.45;;;15.07;;
31966;SDS011;18496;52.042;6.812;2023-10-13T01:29:52;31.00;;;14.57;;
31966;SDS011;18496;52.042;6.812;2023-10-13T01:32:08;36.95;;;15.70;;
31966;SDS011;18496;52.042;6.812;2023-10-13T01:34:16;29.20;;;15.55;;
31966;SDS011;18496;52.042;6.812;2023-10-13T01:36:27;29.85;;;14.82;;
31966;SDS011;18496;52.042;6.812;2023-10-13T01:38:31;27.45;;;15.02;;
31966;SDS011;18496;52.042;6.812;2023-10-13T01:40:36;30.83;;;15.70;;
31966;SDS011;18496;52.042;6.812;2023-10-13T01:42:40;29.50;;;14.82;;
31966;SDS011;18496;52.042;6.812;2023-10-13T01:44:43;26.35;;;15.18;;
31966;SDS011;18496;52.042;6.812;2023-10-13T01:46:47;27.30;;;14.20;;
31966;SDS011;18496;52.042;6.812;2023-10-13T01:48:51;27.65;;;13.93;;
31966;SDS011;18496;52.042;6.812;2023-10-13T01:50:57;28.95;;;14.45;;
31966;SDS011;18496;52.042;6.812;2023-10-13T01:53:03;28.90;;;14.23;;
31966;SDS011;18496;52.042;6.812;2023-10-13T01:55:15;26.35;;;14.68;;
31966;SDS011;18496;52.042;6.812;2023-10-13T01:57:22;40.88;;;14.90;;
31966;SDS011;18496;52.042;6.812;2023-10-13T01:59:27;32.10;;;13.50;;
31966;SDS011;18496;52.042;6.812;2023-10-13T02:01:33;35.50;;;15.10;;
31966;SDS011;18496;52.042;6.812;2023-10-13T02:03:38;31.67;;;13.98;;
31966;SDS011;18496;52.042;6.812;2023-10-13T02:05:49;31.27;;;14.35;;
31966;SDS011;18496;52.042;6.812;2023-10-13T02:07:56;27.50;;;14.73;;
31966;SDS011;18496;52.042;6.812;2023-10-13T02:10:05;30.77;;;13.68;;
31966;SDS011;18496;52.042;6.812;2023-10-13T02:12:09;29.70;;;13.48;;
31966;SDS011;18496;52.042;6.812;2023-10-13T02:14:14;23.52;;;13.57;;
31966;SDS011;18496;52.042;6.812;2023-10-13T02:16:21;24.45;;;12.88;;
31966;SDS011;18496;52.042;6.812;2023-10-13T02:18:25;26.38;;;12.35;;
31966;SDS011;18496;52.042;6.812;2023-10-13T02:20:36;25.55;;;12.05;;
31966;SDS011;18496;52.042;6.812;2023-10-13T02:22:47;29.05;;;13.27;;
31966;SDS011;18496;52.042;6.812;2023-10-13T02:24:54;23.13;;;12.57;;
31966;SDS011;18496;52.042;6.812;2023-10-13T02:27:04;23.93;;;12.20;;
31966;SDS011;18496;52.042;6.812;2023-10-13T02:29:12;30.10;;;12.63;;
31966;SDS011;18496;52.042;6.812;2023-10-13T02:31:17;21.67;;;12.02;;
31966;SDS011;18496;52.042;6.812;2023-10-13T02:33:22;24.65;;;12.15;;
31966;SDS011;18496;52.042;6.812;2023-10-13T02:35:32;24.60;;;11.70;;
31966;SDS011;18496;52.042;6.812;2023-10-13T02:37:38;22.13;;;11.80;;
31966;SDS011;18496;52.042;6.812;2023-10-13T02:39:42;28.27;;;11.18;;
31966;SDS011;18496;52.042;6.812;2023-10-13T02:41:45;27.42;;;11.80;;
31966;SDS011;18496;52.042;6.812;2023-10-13T02:43:52;30.85;;;12.90;;
31966;SDS011;18496;52.042;6.812;2023-10-13T02:45:56;25.73;;;12.40;;
31966;SDS011;18496;52.042;6.812;2023-10-13T02:48:01;21.50;;;11.50;;
31966;SDS011;18496;52.042;6.812;2023-10-13T02:50:13;22.23;;;11.00;;
31966;SDS011;18496;52.042;6.812;2023-10-13T02:52:21;22.08;;;11.77;;
31966;SDS011;18496;52.042;6.812;2023-10-13T02:54:27;24.83;;;10.65;;
31966;SDS011;18496;52.042;6.812;2023-10-13T02:56:34;19.42;;;10.75;;
31966;SDS011;18496;52.042;6.812;2023-10-13T02:58:38;24.48;;;11.35;;
31966;SDS011;18496;52.042;6.812;2023-10-13T03:00:42;18.40;;;10.98;;
31966;SDS011;18496;52.042;6.812;2023-10-13T03:02:45;24.98;;;11.15;;
31966;SDS011;18496;52.042;6.812;2023-10-13T03:05:01;22.77;;;11.15;;
31966;SDS011;18496;52.042;6.812;2023-10-13T03:07:12;19.58;;;11.10;;
31966;SDS011;18496;52.042;6.812;2023-10-13T03:09:18;22.65;;;11.77;;
31966;SDS011;18496;52.042;6.812;2023-10-13T03:11:24;24.65;;;11.20;;
31966;SDS011;18496;52.042;6.812;2023-10-13T03:13:28;30.42;;;11.40;;
31966;SDS011;18496;52.042;6.812;2023-10-13T03:15:32;20.95;;;11.15;;
31966;SDS011;18496;52.042;6.812;2023-10-13T03:17:38;24.70;;;10.93;;
31966;SDS011;18496;52.042;6.812;2023-10-13T03:19:46;18.48;;;10.18;;
31966;SDS011;18496;52.042;6.812;2023-10-13T03:21:53;22.02;;;10.30;;
31966;SDS011;18496;52.042;6.812;2023-10-13T03:24:00;26.02;;;10.73;;
31966;SDS011;18496;52.042;6.812;2023-10-13T03:26:09;21.20;;;10.85;;
31966;SDS011;18496;52.042;6.812;2023-10-13T03:28:13;26.55;;;10.88;;
31966;SDS011;18496;52.042;6.812;2023-10-13T03:30:20;22.23;;;10.85;;
31966;SDS011;18496;52.042;6.812;2023-10-13T03:32:24;19.42;;;10.25;;
31966;SDS011;18496;52.042;6.812;2023-10-13T03:34:29;19.40;;;10.10;;
31966;SDS011;18496;52.042;6.812;2023-10-13T03:36:33;20.20;;;10.32;;
31966;SDS011;18496;52.042;6.812;2023-10-13T03:38:55;16.77;;;10.60;;
31966;SDS011;18496;52.042;6.812;2023-10-13T03:40:59;22.77;;;10.57;;
31966;SDS011;18496;52.042;6.812;2023-10-13T03:43:23;27.80;;;11.75;;
31966;SDS011;18496;52.042;6.812;2023-10-13T03:45:27;20.90;;;11.30;;
31966;SDS011;18496;52.042;6.812;2023-10-13T03:47:32;26.17;;;12.70;;
31966;SDS011;18496;52.042;6.812;2023-10-13T03:49:35;22.20;;;10.68;;
31966;SDS011;18496;52.042;6.812;2023-10-13T03:51:41;24.02;;;11.40;;
31966;SDS011;18496;52.042;6.812;2023-10-13T03:53:45;27.55;;;11.57;;
31966;SDS011;18496;52.042;6.812;2023-10-13T03:56:08;24.60;;;12.27;;
31966;SDS011;18496;52.042;6.812;2023-10-13T03:58:12;23.98;;;12.88;;
31966;SDS011;18496;52.042;6.812;2023-10-13T04:00:16;26.38;;;12.27;;
31966;SDS011;18496;52.042;6.812;2023-10-13T04:02:26;21.83;;;11.48;;
31966;SDS011;18496;52.042;6.812;2023-10-13T04:04:30;23.98;;;12.27;;
31966;SDS011;18496;52.042;6.812;2023-10-13T04:06:40;18.83;;;11.50;;
31966;SDS011;18496;52.042;6.812;2023-10-13T04:08:51;22.02;;;11.43;;
31966;SDS011;18496;52.042;6.812;2023-10-13T04:11:13;23.08;;;12.55;;
31966;SDS011;18496;52.042;6.812;2023-10-13T04:13:36;18.75;;;11.25;;
31966;SDS011;18496;52.042;6.812;2023-10-13T04:15:43;22.50;;;12.63;;
31966;SDS011;18496;52.042;6.812;2023-10-13T04:18:06;25.70;;;11.20;;
31966;SDS011;18496;52.042;6.812;2023-10-13T04:20:22;28.73;;;12.23;;
31966;SDS011;18496;52.042;6.812;2023-10-13T04:24:49;34.30;;;12.35;;
31966;SDS011;18496;52.042;6.812;2023-10-13T04:27:24;30.13;;;11.85;;
31966;SDS011;18496;52.042;6.812;2023-10-13T04:29:57;28.35;;;11.55;;
31966;SDS011;18496;52.042;6.812;2023-10-13T04:32:27;21.70;;;11.20;;
31966;SDS011;18496;52.042;6.812;2023-10-13T04:34:31;22.73;;;11.02;;
31966;SDS011;18496;52.042;6.812;2023-10-13T04:36:43;20.92;;;10.60;;
31966;SDS011;18496;52.042;6.812;2023-10-13T04:38:59;19.90;;;10.20;;
31966;SDS011;18496;52.042;6.812;2023-10-13T04:41:03;29.80;;;11.68;;
31966;SDS011;18496;52.042;6.812;2023-10-13T04:43:13;29.65;;;11.82;;
31966;SDS011;18496;52.042;6.812;2023-10-13T04:45:36;24.10;;;11.15;;
31966;SDS011;18496;52.042;6.812;2023-10-13T04:47:39;22.15;;;10.82;;
31966;SDS011;18496;52.042;6.812;2023-10-13T04:49:51;24.50;;;11.20;;
31966;SDS011;18496;52.042;6.812;2023-10-13T04:51:58;18.98;;;10.75;;
31966;SDS011;18496;52.042;6.812;2023-10-13T04:54:12;21.27;;;9.82;;
31966;SDS011;18496;52.042;6.812;2023-10-13T04:56:29;22.35;;;9.75;;
31966;SDS011;18496;52.042;6.812;2023-10-13T04:59:01;16.67;;;9.35;;
31966;SDS011;18496;52.042;6.812;2023-10-13T05:01:23;19.58;;;9.35;;
31966;SDS011;18496;52.042;6.812;2023-10-13T05:03:27;22.92;;;8.90;;
31966;SDS011;18496;52.042;6.812;2023-10-13T05:05:49;23.10;;;9.68;;
31966;SDS011;18496;52.042;6.812;2023-10-13T05:08:12;19.17;;;9.00;;
31966;SDS011;18496;52.042;6.812;2023-10-13T05:10:35;22.23;;;9.32;;
31966;SDS011;18496;52.042;6.812;2023-10-13T05:12:58;17.48;;;8.95;;
31966;SDS011;18496;52.042;6.812;2023-10-13T05:15:20;23.15;;;10.57;;
31966;SDS011;18496;52.042;6.812;2023-10-13T05:17:42;21.05;;;10.52;;
31966;SDS011;18496;52.042;6.812;2023-10-13T05:20:05;18.33;;;10.45;;
31966;SDS011;18496;52.042;6.812;2023-10-13T05:22:27;18.80;;;10.98;;
31966;SDS011;18496;52.042;6.812;2023-10-13T05:24:50;23.48;;;11.65;;
31966;SDS011;18496;52.042;6.812;2023-10-13T05:27:12;27.35;;;12.10;;
31966;SDS011;18496;52.042;6.812;2023-10-13T05:29:34;21.88;;;11.45;;
31966;SDS011;18496;52.042;6.812;2023-10-13T05:31:59;20.13;;;10.50;;
31966;SDS011;18496;52.042;6.812;2023-10-13T05:34:22;31.15;;;12.13;;
31966;SDS011;18496;52.042;6.812;2023-10-13T05:36:44;22.98;;;12.13;;
31966;SDS011;18496;52.042;6.812;2023-10-13T05:39:06;27.27;;;12.60;;
31966;SDS011;18496;52.042;6.812;2023-10-13T05:41:28;25.70;;;12.32;;
31966;SDS011;18496;52.042;6.812;2023-10-13T05:43:51;24.10;;;12.55;;
31966;SDS011;18496;52.042;6.812;2023-10-13T05:46:13;20.70;;;12.65;;
31966;SDS011;18496;52.042;6.812;2023-10-13T05:48:29;25.73;;;13.32;;
31966;SDS011;18496;52.042;6.812;2023-10-13T05:51:05;24.58;;;12.60;;
31966;SDS011;18496;52.042;6.812;2023-10-13T05:53:29;24.55;;;12.82;;
31966;SDS011;18496;52.042;6.812;2023-10-13T05:55:51;24.88;;;12.75;;
31966;SDS011;18496;52.042;6.812;2023-10-13T05:58:13;23.75;;;12.80;;
31966;SDS011;18496;52.042;6.812;2023-10-13T06:00:39;22.75;;;12.63;;
31966;SDS011;18496;52.042;6.812;2023-10-13T06:03:02;27.30;;;12.32;;
31966;SDS011;18496;52.042;6.812;2023-10-13T06:05:25;22.13;;;12.00;;
31966;SDS011;18496;52.042;6.812;2023-10-13T06:07:47;23.15;;;11.65;;
31966;SDS011;18496;52.042;6.812;2023-10-13T06:10:10;20.67;;;11.45;;
31966;SDS011;18496;52.042;6.812;2023-10-13T06:12:39;22.42;;;11.38;;
31966;SDS011;18496;52.042;6.812;2023-10-13T06:15:01;17.63;;;10.13;;
31966;SDS011;18496;52.042;6.812;2023-10-13T06:17:43;16.08;;;9.40;;
31966;SDS011;18496;52.042;6.812;2023-10-13T06:20:06;17.95;;;8.93;;
31966;SDS011;18496;52.042;6.812;2023-10-13T06:22:29;19.95;;;9.10;;
31966;SDS011;18496;52.042;6.812;2023-10-13T06:24:51;17.95;;;8.05;;
31966;SDS011;18496;52.042;6.812;2023-10-13T06:27:14;15.15;;;8.00;;
31966;SDS011;18496;52.042;6.812;2023-10-13T06:29:38;13.95;;;7.63;;
31966;SDS011;18496;52.042;6.812;2023-10-13T06:31:41;14.52;;;6.75;;
31966;SDS011;18496;52.042;6.812;2023-10-13T06:33:49;14.02;;;7.50;;
31966;SDS011;18496;52.042;6.812;2023-10-13T06:35:52;15.65;;;7.85;;
31966;SDS011;18496;52.042;6.812;2023-10-13T06:37:59;12.93;;;7.30;;
31966;SDS011;18496;52.042;6.812;2023-10-13T06:40:08;13.05;;;7.20;;
31966;SDS011;18496;52.042;6.812;2023-10-13T06:42:28;15.25;;;7.35;;
31966;SDS011;18496;52.042;6.812;2023-10-13T06:44:31;14.15;;;6.50;;
31966;SDS011;18496;52.042;6.812;2023-10-13T06:46:35;15.80;;;6.95;;
31966;SDS011;18496;52.042;6.812;2023-10-13T06:48:39;16.15;;;8.20;;
31966;SDS011;18496;52.042;6.812;2023-10-13T06:50:49;11.73;;;6.95;;
31966;SDS011;18496;52.042;6.812;2023-10-13T06:52:55;16.27;;;6.60;;
31966;SDS011;18496;52.042;6.812;2023-10-13T06:54:58;13.05;;;6.32;;
31966;SDS011;18496;52.042;6.812;2023-10-13T06:57:08;12.30;;;6.35;;
31966;SDS011;18496;52.042;6.812;2023-10-13T06:59:23;14.32;;;5.95;;
31966;SDS011;18496;52.042;6.812;2023-10-13T07:01:29;11.82;;;6.05;;
31966;SDS011;18496;52.042;6.812;2023-10-13T07:03:35;9.85;;;5.90;;
31966;SDS011;18496;52.042;6.812;2023-10-13T07:05:39;8.27;;;5.90;;
31966;SDS011;18496;52.042;6.812;2023-10-13T07:07:44;10.93;;;5.38;;
31966;SDS011;18496;52.042;6.812;2023-10-13T07:09:49;10.80;;;5.20;;
31966;SDS011;18496;52.042;6.812;2023-10-13T07:11:58;10.45;;;5.53;;
31966;SDS011;18496;52.042;6.812;2023-10-13T07:14:06;11.40;;;5.60;;
31966;SDS011;18496;52.042;6.812;2023-10-13T07:16:13;9.82;;;5.65;;
31966;SDS011;18496;52.042;6.812;2023-10-13T07:18:18;13.75;;;6.00;;
31966;SDS011;18496;52.042;6.812;2023-10-13T07:20:26;17.10;;;6.00;;
31966;SDS011;18496;52.042;6.812;2023-10-13T07:22:32;10.20;;;5.53;;
31966;SDS011;18496;52.042;6.812;2023-10-13T07:24:42;10.50;;;5.65;;
31966;SDS011;18496;52.042;6.812;2023-10-13T07:26:46;10.23;;;5.43;;
31966;SDS011;18496;52.042;6.812;2023-10-13T07:28:50;12.77;;;5.68;;
31966;SDS011;18496;52.042;6.812;2023-10-13T07:30:55;11.65;;;5.18;;
31966;SDS011;18496;52.042;6.812;2023-10-13T07:32:58;10.90;;;5.32;;
31966;SDS011;18496;52.042;6.812;2023-10-13T07:35:02;10.15;;;5.45;;
31966;SDS011;18496;52.042;6.812;2023-10-13T07:37:15;13.50;;;5.47;;
31966;SDS011;18496;52.042;6.812;2023-10-13T07:39:19;14.55;;;5.00;;
31966;SDS011;18496;52.042;6.812;2023-10-13T07:41:28;12.77;;;5.95;;
31966;SDS011;18496;52.042;6.812;2023-10-13T07:43:33;10.07;;;5.22;;
31966;SDS011;18496;52.042;6.812;2023-10-13T07:45:37;15.82;;;5.65;;
31966;SDS011;18496;52.042;6.812;2023-10-13T07:47:43;10.82;;;5.20;;
31966;SDS011;18496;52.042;6.812;2023-10-13T07:49:48;12.55;;;5.00;;
31966;SDS011;18496;52.042;6.812;2023-10-13T07:51:53;12.43;;;5.43;;
31966;SDS011;18496;52.042;6.812;2023-10-13T07:54:00;10.73;;;5.90;;
31966;SDS011;18496;52.042;6.812;2023-10-13T07:56:11;11.00;;;6.05;;
31966;SDS011;18496;52.042;6.812;2023-10-13T07:58:15;16.05;;;5.32;;
31966;SDS011;18496;52.042;6.812;2023-10-13T08:00:19;17.60;;;6.95;;
31966;SDS011;18496;52.042;6.812;2023-10-13T08:02:32;17.52;;;5.72;;
31966;SDS011;18496;52.042;6.812;2023-10-13T08:04:51;15.30;;;5.95;;
31966;SDS011;18496;52.042;6.812;2023-10-13T08:06:56;19.25;;;6.43;;
31966;SDS011;18496;52.042;6.812;2023-10-13T08:09:07;12.48;;;6.25;;
31966;SDS011;18496;52.042;6.812;2023-10-13T08:11:12;17.25;;;5.70;;
31966;SDS011;18496;52.042;6.812;2023-10-13T08:13:25;18.42;;;6.35;;
31966;SDS011;18496;52.042;6.812;2023-10-13T08:15:29;16.80;;;6.50;;
31966;SDS011;18496;52.042;6.812;2023-10-13T08:17:36;13.35;;;5.75;;
31966;SDS011;18496;52.042;6.812;2023-10-13T08:19:40;15.18;;;5.82;;
31966;SDS011;18496;52.042;6.812;2023-10-13T08:21:49;11.98;;;5.82;;
31966;SDS011;18496;52.042;6.812;2023-10-13T08:24:00;16.60;;;6.10;;
31966;SDS011;18496;52.042;6.812;2023-10-13T08:26:10;19.23;;;6.32;;
31966;SDS011;18496;52.042;6.812;2023-10-13T08:28:32;24.88;;;6.28;;
31966;SDS011;18496;52.042;6.812;2023-10-13T08:30:39;13.45;;;6.07;;
31966;SDS011;18496;52.042;6.812;2023-10-13T08:32:55;25.42;;;6.97;;
31966;SDS011;18496;52.042;6.812;2023-10-13T08:35:02;18.23;;;7.07;;
31966;SDS011;18496;52.042;6.812;2023-10-13T08:37:06;17.38;;;6.07;;
31966;SDS011;18496;52.042;6.812;2023-10-13T08:39:25;17.83;;;6.20;;
31966;SDS011;18496;52.042;6.812;2023-10-13T08:41:47;16.33;;;6.65;;
31966;SDS011;18496;52.042;6.812;2023-10-13T08:44:11;15.40;;;6.15;;
31966;SDS011;18496;52.042;6.812;2023-10-13T08:46:35;16.45;;;6.47;;
31966;SDS011;18496;52.042;6.812;2023-10-13T08:49:06;17.90;;;7.43;;
31966;SDS011;18496;52.042;6.812;2023-10-13T08:51:17;27.60;;;7.32;;
31966;SDS011;18496;52.042;6.812;2023-10-13T08:53:42;32.38;;;7.30;;
31966;SDS011;18496;52.042;6.812;2023-10-13T08:56:01;19.80;;;6.43;;
31966;SDS011;18496;52.042;6.812;2023-10-13T08:58:21;24.90;;;7.15;;
31966;SDS011;18496;52.042;6.812;2023-10-13T09:00:32;19.65;;;6.22;;
31966;SDS011;18496;52.042;6.812;2023-10-13T09:02:56;19.83;;;6.47;;
31966;SDS011;18496;52.042;6.812;2023-10-13T09:05:03;21.52;;;6.03;;
31966;SDS011;18496;52.042;6.812;2023-10-13T09:07:27;26.10;;;6.57;;
31966;SDS011;18496;52.042;6.812;2023-10-13T09:09:31;19.80;;;6.50;;
31966;SDS011;18496;52.042;6.812;2023-10-13T09:11:38;18.10;;;5.55;;
31966;SDS011;18496;52.042;6.812;2023-10-13T09:13:56;18.77;;;6.28;;
31966;SDS011;18496;52.042;6.812;2023-10-13T09:16:10;21.73;;;6.40;;
31966;SDS011;18496;52.042;6.812;2023-10-13T09:18:35;21.23;;;6.88;;
31966;SDS011;18496;52.042;6.812;2023-10-13T09:23:23;16.20;;;5.07;;
31966;SDS011;18496;52.042;6.812;2023-10-13T09:25:32;22.73;;;5.80;;
31966;SDS011;18496;52.042;6.812;2023-10-13T09:28:02;13.70;;;5.85;;
31966;SDS011;18496;52.042;6.812;2023-10-13T09:30:13;17.80;;;6.38;;
31966;SDS011;18496;52.042;6.812;2023-10-13T09:32:26;22.48;;;6.63;;
31966;SDS011;18496;52.042;6.812;2023-10-13T09:34:31;14.20;;;6.25;;
31966;SDS011;18496;52.042;6.812;2023-10-13T09:36:37;18.55;;;5.93;;
31966;SDS011;18496;52.042;6.812;2023-10-13T09:38:41;19.38;;;5.75;;
31966;SDS011;18496;52.042;6.812;2023-10-13T09:40:51;15.35;;;6.20;;
31966;SDS011;18496;52.042;6.812;2023-10-13T09:43:01;16.27;;;5.72;;
31966;SDS011;18496;52.042;6.812;2023-10-13T09:45:10;21.60;;;7.13;;
31966;SDS011;18496;52.042;6.812;2023-10-13T09:47:15;11.93;;;6.10;;
31966;SDS011;18496;52.042;6.812;2023-10-13T09:49:27;19.75;;;6.85;;
31966;SDS011;18496;52.042;6.812;2023-10-13T09:51:48;18.98;;;6.22;;
31966;SDS011;18496;52.042;6.812;2023-10-13T09:53:54;19.77;;;6.20;;
31966;SDS011;18496;52.042;6.812;2023-10-13T09:58:30;21.95;;;6.20;;
31966;SDS011;18496;52.042;6.812;2023-10-13T10:00:42;17.17;;;6.22;;
31966;SDS011;18496;52.042;6.812;2023-10-13T10:03:23;20.85;;;6.80;;
31966;SDS011;18496;52.042;6.812;2023-10-13T10:05:42;21.35;;;6.10;;
31966;SDS011;18496;52.042;6.812;2023-10-13T10:07:56;19.25;;;6.68;;
31966;SDS011;18496;52.042;6.812;2023-10-13T10:10:02;25.25;;;7.10;;
31966;SDS011;18496;52.042;6.812;2023-10-13T10:12:19;21.20;;;7.43;;
31966;SDS011;18496;52.042;6.812;2023-10-13T10:19:05;16.00;;;6.53;;
31966;SDS011;18496;52.042;6.812;2023-10-13T10:21:10;23.98;;;6.38;;
31966;SDS011;18496;52.042;6.812;2023-10-13T10:23:23;18.02;;;6.90;;
31966;SDS011;18496;52.042;6.812;2023-10-13T10:25:39;16.83;;;5.65;;
31966;SDS011;18496;52.042;6.812;2023-10-13T10:27:54;10.70;;;6.00;;
31966;SDS011;18496;52.042;6.812;2023-10-13T10:30:00;13.90;;;6.00;;
31966;SDS011;18496;52.042;6.812;2023-10-13T10:32:16;17.55;;;6.22;;
31966;SDS011;18496;52.042;6.812;2023-10-13T10:34:22;18.35;;;6.25;;
31966;SDS011;18496;52.042;6.812;2023-10-13T10:36:35;15.57;;;6.43;;
31966;SDS011;18496;52.042;6.812;2023-10-13T10:38:52;14.55;;;6.25;;
31966;SDS011;18496;52.042;6.812;2023-10-13T10:41:01;22.35;;;7.00;;
31966;SDS011;18496;52.042;6.812;2023-10-13T10:43:07;17.17;;;6.45;;
31966;SDS011;18496;52.042;6.812;2023-10-13T10:45:11;22.10;;;6.50;;
31966;SDS011;18496;52.042;6.812;2023-10-13T10:47:15;23.30;;;6.88;;
31966;SDS011;18496;52.042;6.812;2023-10-13T10:49:36;14.50;;;6.65;;
31966;SDS011;18496;52.042;6.812;2023-10-13T10:51:44;17.17;;;6.45;;
31966;SDS011;18496;52.042;6.812;2023-10-13T10:53:48;20.25;;;7.07;;
31966;SDS011;18496;52.042;6.812;2023-10-13T10:55:53;22.38;;;6.45;;
31966;SDS011;18496;52.042;6.812;2023-10-13T10:58:08;18.42;;;6.50;;
31966;SDS011;18496;52.042;6.812;2023-10-13T11:00:31;16.92;;;6.30;;
31966;SDS011;18496;52.042;6.812;2023-10-13T11:03:01;20.05;;;6.78;;
31966;SDS011;18496;52.042;6.812;2023-10-13T11:05:08;20.27;;;6.72;;
31966;SDS011;18496;52.042;6.812;2023-10-13T11:07:23;18.95;;;6.13;;
31966;SDS011;18496;52.042;6.812;2023-10-13T11:09:31;19.45;;;6.88;;
31966;SDS011;18496;52.042;6.812;2023-10-13T11:11:40;21.85;;;6.03;;
31966;SDS011;18496;52.042;6.812;2023-10-13T11:13:46;22.42;;;6.78;;
31966;SDS011;18496;52.042;6.812;2023-10-13T11:16:20;15.60;;;7.65;;
31966;SDS011;18496;52.042;6.812;2023-10-13T11:18:30;17.02;;;6.07;;
31966;SDS011;18496;52.042;6.812;2023-10-13T11:20:41;19.27;;;6.47;;
31966;SDS011;18496;52.042;6.812;2023-10-13T11:22:49;18.92;;;6.32;;
31966;SDS011;18496;52.042;6.812;2023-10-13T11:24:53;26.27;;;7.22;;
31966;SDS011;18496;52.042;6.812;2023-10-13T11:26:57;15.43;;;6.55;;
31966;SDS011;18496;52.042;6.812;2023-10-13T11:29:00;20.13;;;6.78;;
31966;SDS011;18496;52.042;6.812;2023-10-13T11:31:13;26.17;;;7.25;;
31966;SDS011;18496;52.042;6.812;2023-10-13T11:33:22;23.80;;;6.78;;
31966;SDS011;18496;52.042;6.812;2023-10-13T11:35:31;16.95;;;6.78;;
31966;SDS011;18496;52.042;6.812;2023-10-13T11:37:53;24.67;;;6.95;;
31966;SDS011;18496;52.042;6.812;2023-10-13T11:40:06;25.80;;;8.18;;
31966;SDS011;18496;52.042;6.812;2023-10-13T11:42:15;19.50;;;6.53;;
31966;SDS011;18496;52.042;6.812;2023-10-13T11:44:20;16.20;;;7.10;;
31966;SDS011;18496;52.042;6.812;2023-10-13T11:46:25;24.42;;;7.25;;
31966;SDS011;18496;52.042;6.812;2023-10-13T11:48:39;19.92;;;7.35;;
31966;SDS011;18496;52.042;6.812;2023-10-13T11:50:44;22.98;;;7.05;;
31966;SDS011;18496;52.042;6.812;2023-10-13T11:52:49;20.65;;;7.03;;
31966;SDS011;18496;52.042;6.812;2023-10-13T11:54:53;13.02;;;6.55;;
31966;SDS011;18496;52.042;6.812;2023-10-13T11:56:56;12.05;;;6.82;;
31966;SDS011;18496;52.042;6.812;2023-10-13T11:59:01;22.08;;;7.03;;
31966;SDS011;18496;52.042;6.812;2023-10-13T12:01:05;22.65;;;7.03;;
31966;SDS011;18496;52.042;6.812;2023-10-13T12:03:18;19.90;;;7.07;;
31966;SDS011;18496;52.042;6.812;2023-10-13T12:05:40;21.17;;;7.55;;
31966;SDS011;18496;52.042;6.812;2023-10-13T12:08:09;22.38;;;6.88;;
31966;SDS011;18496;52.042;6.812;2023-10-13T12:10:24;21.98;;;7.32;;
31966;SDS011;18496;52.042;6.812;2023-10-13T12:12:39;19.52;;;7.60;;
31966;SDS011;18496;52.042;6.812;2023-10-13T12:14:45;17.75;;;6.40;;
31966;SDS011;18496;52.042;6.812;2023-10-13T12:17:01;15.15;;;6.38;;
31966;SDS011;18496;52.042;6.812;2023-10-13T12:19:07;19.45;;;7.40;;
31966;SDS011;18496;52.042;6.812;2023-10-13T12:21:14;18.10;;;7.32;;
31966;SDS011;18496;52.042;6.812;2023-10-13T12:23:22;24.30;;;7.85;;
31966;SDS011;18496;52.042;6.812;2023-10-13T12:25:35;18.90;;;7.72;;
31966;SDS011;18496;52.042;6.812;2023-10-13T12:27:57;25.98;;;7.88;;
31966;SDS011;18496;52.042;6.812;2023-10-13T12:30:09;19.17;;;7.70;;
31966;SDS011;18496;52.042;6.812;2023-10-13T12:32:16;19.05;;;8.05;;
31966;SDS011;18496;52.042;6.812;2023-10-13T12:34:28;15.73;;;7.20;;
31966;SDS011;18496;52.042;6.812;2023-10-13T12:36:51;16.77;;;7.38;;
31966;SDS011;18496;52.042;6.812;2023-10-13T12:39:08;31.17;;;8.10;;
31966;SDS011;18496;52.042;6.812;2023-10-13T12:41:15;25.08;;;8.15;;
31966;SDS011;18496;52.042;6.812;2023-10-13T12:43:41;21.30;;;7.97;;
31966;SDS011;18496;52.042;6.812;2023-10-13T12:46:04;26.77;;;7.75;;
31966;SDS011;18496;52.042;6.812;2023-10-13T12:48:26;18.15;;;7.50;;
31966;SDS011;18496;52.042;6.812;2023-10-13T12:50:48;22.42;;;7.07;;
31966;SDS011;18496;52.042;6.812;2023-10-13T12:53:10;30.40;;;7.85;;
31966;SDS011;18496;52.042;6.812;2023-10-13T12:55:17;21.52;;;7.78;;
31966;SDS011;18496;52.042;6.812;2023-10-13T12:57:24;26.38;;;7.78;;
31966;SDS011;18496;52.042;6.812;2023-10-13T12:59:29;24.67;;;8.52;;
31966;SDS011;18496;52.042;6.812;2023-10-13T13:01:32;21.10;;;7.97;;
31966;SDS011;18496;52.042;6.812;2023-10-13T13:03:37;16.60;;;7.25;;
31966;SDS011;18496;52.042;6.812;2023-10-13T13:05:47;31.42;;;7.45;;
31966;SDS011;18496;52.042;6.812;2023-10-13T13:07:51;22.23;;;7.97;;
31966;SDS011;18496;52.042;6.812;2023-10-13T13:09:57;32.95;;;7.97;;